<?xml version="1.0" encoding="UTF-8" standalone="no" ?>
<gpx xmlns="http://www.topografix.com/GPX/1/1" xmlns:xsi="http://www.w3.org/2001/XMLSchema-instance" xsi:schemaLocation="http://www.topografix.com/GPX/1/1 http://www.topografix.com/GPX/1/1/gpx.xsd" version="1.1" creator="VisuGPX - https://www.visugpx.com">
  <metadata>
    <name>Moulins, Boucle à partir de l'église</name>
  </metadata>
  <trk>
    <name><![CDATA[13039248-moulins- moulins rs3]]></name>
    <trkseg>
      <trkpt lat="46.95301" lon="-0.79447">
        <ele>146</ele>
        <time>2021-05-12T07:04:38Z</time>
      </trkpt>
      <trkpt lat="46.95292" lon="-0.7946">
        <ele>146</ele>
        <time>2021-05-12T07:04:48Z</time>
      </trkpt>
      <trkpt lat="46.95307" lon="-0.79494">
        <ele>146</ele>
        <time>2021-05-12T07:05:10Z</time>
      </trkpt>
      <trkpt lat="46.95313" lon="-0.79492">
        <ele>146</ele>
        <time>2021-05-12T07:05:15Z</time>
      </trkpt>
      <trkpt lat="46.95321" lon="-0.79475">
        <ele>146</ele>
        <time>2021-05-12T07:05:26Z</time>
      </trkpt>
      <trkpt lat="46.95329" lon="-0.79463">
        <ele>145</ele>
        <time>2021-05-12T07:05:36Z</time>
      </trkpt>
      <trkpt lat="46.95338" lon="-0.79455">
        <ele>145</ele>
        <time>2021-05-12T07:05:44Z</time>
      </trkpt>
      <trkpt lat="46.95344" lon="-0.79442">
        <ele>145</ele>
        <time>2021-05-12T07:05:53Z</time>
      </trkpt>
      <trkpt lat="46.95348" lon="-0.7943">
        <ele>144</ele>
        <time>2021-05-12T07:06:00Z</time>
      </trkpt>
      <trkpt lat="46.95365" lon="-0.79438">
        <ele>144</ele>
        <time>2021-05-12T07:06:14Z</time>
      </trkpt>
      <trkpt lat="46.95389" lon="-0.79438">
        <ele>144</ele>
        <time>2021-05-12T07:06:33Z</time>
      </trkpt>
      <trkpt lat="46.95406" lon="-0.79436">
        <ele>144</ele>
        <time>2021-05-12T07:06:47Z</time>
      </trkpt>
      <trkpt lat="46.95423" lon="-0.79432">
        <ele>144</ele>
        <time>2021-05-12T07:07:01Z</time>
      </trkpt>
      <trkpt lat="46.95443" lon="-0.79425">
        <ele>143</ele>
        <time>2021-05-12T07:07:17Z</time>
      </trkpt>
      <trkpt lat="46.95463" lon="-0.79414">
        <ele>142</ele>
        <time>2021-05-12T07:07:34Z</time>
      </trkpt>
      <trkpt lat="46.95485" lon="-0.79401">
        <ele>141</ele>
        <time>2021-05-12T07:07:53Z</time>
      </trkpt>
      <trkpt lat="46.95513" lon="-0.79388">
        <ele>140</ele>
        <time>2021-05-12T07:08:17Z</time>
      </trkpt>
      <trkpt lat="46.95538" lon="-0.79377">
        <ele>139</ele>
        <time>2021-05-12T07:08:38Z</time>
      </trkpt>
      <trkpt lat="46.9558" lon="-0.79364">
        <ele>137</ele>
        <time>2021-05-12T07:09:12Z</time>
      </trkpt>
      <trkpt lat="46.95612" lon="-0.79359">
        <ele>137</ele>
        <time>2021-05-12T07:09:38Z</time>
      </trkpt>
      <trkpt lat="46.95633" lon="-0.79355">
        <ele>136</ele>
        <time>2021-05-12T07:09:55Z</time>
      </trkpt>
      <trkpt lat="46.95653" lon="-0.79348">
        <ele>136</ele>
        <time>2021-05-12T07:10:11Z</time>
      </trkpt>
      <trkpt lat="46.95676" lon="-0.79336">
        <ele>136</ele>
        <time>2021-05-12T07:10:31Z</time>
      </trkpt>
      <trkpt lat="46.9569" lon="-0.79324">
        <ele>135</ele>
        <time>2021-05-12T07:10:44Z</time>
      </trkpt>
      <trkpt lat="46.95711" lon="-0.79302">
        <ele>134</ele>
        <time>2021-05-12T07:11:05Z</time>
      </trkpt>
      <trkpt lat="46.95722" lon="-0.79285">
        <ele>133</ele>
        <time>2021-05-12T07:11:17Z</time>
      </trkpt>
      <trkpt lat="46.95735" lon="-0.7926">
        <ele>132</ele>
        <time>2021-05-12T07:11:35Z</time>
      </trkpt>
      <trkpt lat="46.95742" lon="-0.79247">
        <ele>132</ele>
        <time>2021-05-12T07:11:44Z</time>
      </trkpt>
      <trkpt lat="46.95749" lon="-0.79222">
        <ele>132</ele>
        <time>2021-05-12T07:11:58Z</time>
      </trkpt>
      <trkpt lat="46.95757" lon="-0.792">
        <ele>131</ele>
        <time>2021-05-12T07:12:12Z</time>
      </trkpt>
      <trkpt lat="46.95764" lon="-0.79184">
        <ele>131</ele>
        <time>2021-05-12T07:12:22Z</time>
      </trkpt>
      <trkpt lat="46.95767" lon="-0.79162">
        <ele>131</ele>
        <time>2021-05-12T07:12:35Z</time>
      </trkpt>
      <trkpt lat="46.95781" lon="-0.79147">
        <ele>130</ele>
        <time>2021-05-12T07:12:49Z</time>
      </trkpt>
      <trkpt lat="46.95799" lon="-0.7914">
        <ele>130</ele>
        <time>2021-05-12T07:13:03Z</time>
      </trkpt>
      <trkpt lat="46.95817" lon="-0.7914">
        <ele>129</ele>
        <time>2021-05-12T07:13:18Z</time>
      </trkpt>
      <trkpt lat="46.95837" lon="-0.7914">
        <ele>129</ele>
        <time>2021-05-12T07:13:34Z</time>
      </trkpt>
      <trkpt lat="46.95855" lon="-0.79141">
        <ele>129</ele>
        <time>2021-05-12T07:13:48Z</time>
      </trkpt>
      <trkpt lat="46.95875" lon="-0.7914">
        <ele>128</ele>
        <time>2021-05-12T07:14:04Z</time>
      </trkpt>
      <trkpt lat="46.95899" lon="-0.79136">
        <ele>128</ele>
        <time>2021-05-12T07:14:24Z</time>
      </trkpt>
      <trkpt lat="46.95919" lon="-0.7913">
        <ele>127</ele>
        <time>2021-05-12T07:14:40Z</time>
      </trkpt>
      <trkpt lat="46.95936" lon="-0.79125">
        <ele>127</ele>
        <time>2021-05-12T07:14:54Z</time>
      </trkpt>
      <trkpt lat="46.95954" lon="-0.79118">
        <ele>126</ele>
        <time>2021-05-12T07:15:09Z</time>
      </trkpt>
      <trkpt lat="46.9597" lon="-0.79109">
        <ele>125</ele>
        <time>2021-05-12T07:15:23Z</time>
      </trkpt>
      <trkpt lat="46.95987" lon="-0.79092">
        <ele>125</ele>
        <time>2021-05-12T07:15:39Z</time>
      </trkpt>
      <trkpt lat="46.96001" lon="-0.7908">
        <ele>124</ele>
        <time>2021-05-12T07:15:52Z</time>
      </trkpt>
      <trkpt lat="46.96015" lon="-0.79071">
        <ele>125</ele>
        <time>2021-05-12T07:16:04Z</time>
      </trkpt>
      <trkpt lat="46.96031" lon="-0.79062">
        <ele>125</ele>
        <time>2021-05-12T07:16:18Z</time>
      </trkpt>
      <trkpt lat="46.96048" lon="-0.79049">
        <ele>126</ele>
        <time>2021-05-12T07:16:33Z</time>
      </trkpt>
      <trkpt lat="46.96062" lon="-0.79036">
        <ele>126</ele>
        <time>2021-05-12T07:16:47Z</time>
      </trkpt>
      <trkpt lat="46.96072" lon="-0.79028">
        <ele>126</ele>
        <time>2021-05-12T07:16:56Z</time>
      </trkpt>
      <trkpt lat="46.96089" lon="-0.79015">
        <ele>127</ele>
        <time>2021-05-12T07:17:11Z</time>
      </trkpt>
      <trkpt lat="46.96109" lon="-0.79001">
        <ele>127</ele>
        <time>2021-05-12T07:17:29Z</time>
      </trkpt>
      <trkpt lat="46.96122" lon="-0.78987">
        <ele>128</ele>
        <time>2021-05-12T07:17:42Z</time>
      </trkpt>
      <trkpt lat="46.96139" lon="-0.78991">
        <ele>128</ele>
        <time>2021-05-12T07:17:56Z</time>
      </trkpt>
      <trkpt lat="46.96158" lon="-0.79007">
        <ele>128</ele>
        <time>2021-05-12T07:18:13Z</time>
      </trkpt>
      <trkpt lat="46.96178" lon="-0.79018">
        <ele>128</ele>
        <time>2021-05-12T07:18:30Z</time>
      </trkpt>
      <trkpt lat="46.96202" lon="-0.79015">
        <ele>129</ele>
        <time>2021-05-12T07:18:49Z</time>
      </trkpt>
      <trkpt lat="46.96226" lon="-0.78999">
        <ele>129</ele>
        <time>2021-05-12T07:19:11Z</time>
      </trkpt>
      <trkpt lat="46.9625" lon="-0.78991">
        <ele>130</ele>
        <time>2021-05-12T07:19:30Z</time>
      </trkpt>
      <trkpt lat="46.96267" lon="-0.7899">
        <ele>131</ele>
        <time>2021-05-12T07:19:44Z</time>
      </trkpt>
      <trkpt lat="46.96259" lon="-0.78967">
        <ele>131</ele>
        <time>2021-05-12T07:19:58Z</time>
      </trkpt>
      <trkpt lat="46.96247" lon="-0.78944">
        <ele>131</ele>
        <time>2021-05-12T07:20:14Z</time>
      </trkpt>
      <trkpt lat="46.96237" lon="-0.78926">
        <ele>131</ele>
        <time>2021-05-12T07:20:27Z</time>
      </trkpt>
      <trkpt lat="46.96229" lon="-0.78904">
        <ele>132</ele>
        <time>2021-05-12T07:20:40Z</time>
      </trkpt>
      <trkpt lat="46.96223" lon="-0.78882">
        <ele>132</ele>
        <time>2021-05-12T07:20:53Z</time>
      </trkpt>
      <trkpt lat="46.96211" lon="-0.78857">
        <ele>131</ele>
        <time>2021-05-12T07:21:10Z</time>
      </trkpt>
      <trkpt lat="46.96199" lon="-0.78832">
        <ele>131</ele>
        <time>2021-05-12T07:21:27Z</time>
      </trkpt>
      <trkpt lat="46.96194" lon="-0.7882">
        <ele>131</ele>
        <time>2021-05-12T07:21:34Z</time>
      </trkpt>
      <trkpt lat="46.96188" lon="-0.78806">
        <ele>131</ele>
        <time>2021-05-12T07:21:43Z</time>
      </trkpt>
      <trkpt lat="46.96181" lon="-0.7879">
        <ele>131</ele>
        <time>2021-05-12T07:21:54Z</time>
      </trkpt>
      <trkpt lat="46.96174" lon="-0.78776">
        <ele>131</ele>
        <time>2021-05-12T07:22:03Z</time>
      </trkpt>
      <trkpt lat="46.96164" lon="-0.78756">
        <ele>131</ele>
        <time>2021-05-12T07:22:17Z</time>
      </trkpt>
      <trkpt lat="46.96153" lon="-0.78731">
        <ele>131</ele>
        <time>2021-05-12T07:22:33Z</time>
      </trkpt>
      <trkpt lat="46.96146" lon="-0.78717">
        <ele>130</ele>
        <time>2021-05-12T07:22:42Z</time>
      </trkpt>
      <trkpt lat="46.96139" lon="-0.78698">
        <ele>130</ele>
        <time>2021-05-12T07:22:54Z</time>
      </trkpt>
      <trkpt lat="46.96142" lon="-0.78677">
        <ele>130</ele>
        <time>2021-05-12T07:23:06Z</time>
      </trkpt>
      <trkpt lat="46.96134" lon="-0.78659">
        <ele>130</ele>
        <time>2021-05-12T07:23:18Z</time>
      </trkpt>
      <trkpt lat="46.96125" lon="-0.78646">
        <ele>130</ele>
        <time>2021-05-12T07:23:28Z</time>
      </trkpt>
      <trkpt lat="46.9612" lon="-0.78631">
        <ele>130</ele>
        <time>2021-05-12T07:23:37Z</time>
      </trkpt>
      <trkpt lat="46.96114" lon="-0.78617">
        <ele>130</ele>
        <time>2021-05-12T07:23:46Z</time>
      </trkpt>
      <trkpt lat="46.96105" lon="-0.78603">
        <ele>130</ele>
        <time>2021-05-12T07:23:56Z</time>
      </trkpt>
      <trkpt lat="46.96097" lon="-0.78594">
        <ele>129</ele>
        <time>2021-05-12T07:24:04Z</time>
      </trkpt>
      <trkpt lat="46.96092" lon="-0.78582">
        <ele>129</ele>
        <time>2021-05-12T07:24:12Z</time>
      </trkpt>
      <trkpt lat="46.96087" lon="-0.78568">
        <ele>129</ele>
        <time>2021-05-12T07:24:21Z</time>
      </trkpt>
      <trkpt lat="46.9608" lon="-0.78553">
        <ele>129</ele>
        <time>2021-05-12T07:24:31Z</time>
      </trkpt>
      <trkpt lat="46.96054" lon="-0.78544">
        <ele>128</ele>
        <time>2021-05-12T07:24:52Z</time>
      </trkpt>
      <trkpt lat="46.96037" lon="-0.7854">
        <ele>128</ele>
        <time>2021-05-12T07:25:06Z</time>
      </trkpt>
      <trkpt lat="46.96016" lon="-0.78529">
        <ele>127</ele>
        <time>2021-05-12T07:25:24Z</time>
      </trkpt>
      <trkpt lat="46.95992" lon="-0.78524">
        <ele>127</ele>
        <time>2021-05-12T07:25:43Z</time>
      </trkpt>
      <trkpt lat="46.95973" lon="-0.78515">
        <ele>127</ele>
        <time>2021-05-12T07:25:59Z</time>
      </trkpt>
      <trkpt lat="46.9596" lon="-0.78511">
        <ele>126</ele>
        <time>2021-05-12T07:26:10Z</time>
      </trkpt>
      <trkpt lat="46.9596" lon="-0.78488">
        <ele>127</ele>
        <time>2021-05-12T07:26:22Z</time>
      </trkpt>
      <trkpt lat="46.95957" lon="-0.78467">
        <ele>127</ele>
        <time>2021-05-12T07:26:34Z</time>
      </trkpt>
      <trkpt lat="46.95952" lon="-0.78444">
        <ele>128</ele>
        <time>2021-05-12T07:26:47Z</time>
      </trkpt>
      <trkpt lat="46.95925" lon="-0.78433">
        <ele>128</ele>
        <time>2021-05-12T07:27:10Z</time>
      </trkpt>
      <trkpt lat="46.95904" lon="-0.78423">
        <ele>129</ele>
        <time>2021-05-12T07:27:27Z</time>
      </trkpt>
      <trkpt lat="46.95892" lon="-0.78417">
        <ele>130</ele>
        <time>2021-05-12T07:27:38Z</time>
      </trkpt>
      <trkpt lat="46.95869" lon="-0.78376">
        <ele>130</ele>
        <time>2021-05-12T07:28:07Z</time>
      </trkpt>
      <trkpt lat="46.95859" lon="-0.78356">
        <ele>130</ele>
        <time>2021-05-12T07:28:20Z</time>
      </trkpt>
      <trkpt lat="46.95842" lon="-0.78327">
        <ele>131</ele>
        <time>2021-05-12T07:28:41Z</time>
      </trkpt>
      <trkpt lat="46.95829" lon="-0.78298">
        <ele>130</ele>
        <time>2021-05-12T07:29:00Z</time>
      </trkpt>
      <trkpt lat="46.95814" lon="-0.78265">
        <ele>129</ele>
        <time>2021-05-12T07:29:22Z</time>
      </trkpt>
      <trkpt lat="46.95801" lon="-0.78242">
        <ele>130</ele>
        <time>2021-05-12T07:29:38Z</time>
      </trkpt>
      <trkpt lat="46.95784" lon="-0.78218">
        <ele>130</ele>
        <time>2021-05-12T07:29:57Z</time>
      </trkpt>
      <trkpt lat="46.95768" lon="-0.78182">
        <ele>131</ele>
        <time>2021-05-12T07:30:20Z</time>
      </trkpt>
      <trkpt lat="46.95747" lon="-0.78144">
        <ele>132</ele>
        <time>2021-05-12T07:30:47Z</time>
      </trkpt>
      <trkpt lat="46.95735" lon="-0.78115">
        <ele>132</ele>
        <time>2021-05-12T07:31:06Z</time>
      </trkpt>
      <trkpt lat="46.95718" lon="-0.78069">
        <ele>133</ele>
        <time>2021-05-12T07:31:34Z</time>
      </trkpt>
      <trkpt lat="46.95698" lon="-0.78037">
        <ele>135</ele>
        <time>2021-05-12T07:31:58Z</time>
      </trkpt>
      <trkpt lat="46.95685" lon="-0.7801">
        <ele>136</ele>
        <time>2021-05-12T07:32:16Z</time>
      </trkpt>
      <trkpt lat="46.95666" lon="-0.77984">
        <ele>137</ele>
        <time>2021-05-12T07:32:37Z</time>
      </trkpt>
      <trkpt lat="46.95644" lon="-0.77946">
        <ele>136</ele>
        <time>2021-05-12T07:33:04Z</time>
      </trkpt>
      <trkpt lat="46.95629" lon="-0.77919">
        <ele>136</ele>
        <time>2021-05-12T07:33:23Z</time>
      </trkpt>
      <trkpt lat="46.95613" lon="-0.77902">
        <ele>137</ele>
        <time>2021-05-12T07:33:39Z</time>
      </trkpt>
      <trkpt lat="46.95598" lon="-0.77883">
        <ele>138</ele>
        <time>2021-05-12T07:33:55Z</time>
      </trkpt>
      <trkpt lat="46.95578" lon="-0.77854">
        <ele>139</ele>
        <time>2021-05-12T07:34:17Z</time>
      </trkpt>
      <trkpt lat="46.95557" lon="-0.77834">
        <ele>140</ele>
        <time>2021-05-12T07:34:37Z</time>
      </trkpt>
      <trkpt lat="46.95548" lon="-0.77811">
        <ele>140</ele>
        <time>2021-05-12T07:34:52Z</time>
      </trkpt>
      <trkpt lat="46.95535" lon="-0.7779">
        <ele>141</ele>
        <time>2021-05-12T07:35:07Z</time>
      </trkpt>
      <trkpt lat="46.95526" lon="-0.77775">
        <ele>141</ele>
        <time>2021-05-12T07:35:18Z</time>
      </trkpt>
      <trkpt lat="46.95514" lon="-0.77758">
        <ele>142</ele>
        <time>2021-05-12T07:35:32Z</time>
      </trkpt>
      <trkpt lat="46.95509" lon="-0.77745">
        <ele>142</ele>
        <time>2021-05-12T07:35:40Z</time>
      </trkpt>
      <trkpt lat="46.95506" lon="-0.77786">
        <ele>141</ele>
        <time>2021-05-12T07:36:02Z</time>
      </trkpt>
      <trkpt lat="46.95497" lon="-0.77828">
        <ele>141</ele>
        <time>2021-05-12T07:36:26Z</time>
      </trkpt>
      <trkpt lat="46.95481" lon="-0.77857">
        <ele>140</ele>
        <time>2021-05-12T07:36:47Z</time>
      </trkpt>
      <trkpt lat="46.95481" lon="-0.77828">
        <ele>141</ele>
        <time>2021-05-12T07:37:03Z</time>
      </trkpt>
      <trkpt lat="46.95475" lon="-0.77784">
        <ele>142</ele>
        <time>2021-05-12T07:37:27Z</time>
      </trkpt>
      <trkpt lat="46.9547" lon="-0.7777">
        <ele>142</ele>
        <time>2021-05-12T07:37:36Z</time>
      </trkpt>
      <trkpt lat="46.95464" lon="-0.77755">
        <ele>142</ele>
        <time>2021-05-12T07:37:45Z</time>
      </trkpt>
      <trkpt lat="46.95464" lon="-0.7774">
        <ele>143</ele>
        <time>2021-05-12T07:37:53Z</time>
      </trkpt>
      <trkpt lat="46.95464" lon="-0.77711">
        <ele>143</ele>
        <time>2021-05-12T07:38:09Z</time>
      </trkpt>
      <trkpt lat="46.95466" lon="-0.77675">
        <ele>144</ele>
        <time>2021-05-12T07:38:29Z</time>
      </trkpt>
      <trkpt lat="46.95456" lon="-0.7766">
        <ele>144</ele>
        <time>2021-05-12T07:38:40Z</time>
      </trkpt>
      <trkpt lat="46.95443" lon="-0.77643">
        <ele>144</ele>
        <time>2021-05-12T07:38:54Z</time>
      </trkpt>
      <trkpt lat="46.95427" lon="-0.77628">
        <ele>145</ele>
        <time>2021-05-12T07:39:10Z</time>
      </trkpt>
      <trkpt lat="46.95409" lon="-0.77608">
        <ele>145</ele>
        <time>2021-05-12T07:39:28Z</time>
      </trkpt>
      <trkpt lat="46.9539" lon="-0.77591">
        <ele>145</ele>
        <time>2021-05-12T07:39:46Z</time>
      </trkpt>
      <trkpt lat="46.95376" lon="-0.77576">
        <ele>146</ele>
        <time>2021-05-12T07:39:59Z</time>
      </trkpt>
      <trkpt lat="46.95358" lon="-0.77566">
        <ele>146</ele>
        <time>2021-05-12T07:40:15Z</time>
      </trkpt>
      <trkpt lat="46.95345" lon="-0.77553">
        <ele>146</ele>
        <time>2021-05-12T07:40:27Z</time>
      </trkpt>
      <trkpt lat="46.95327" lon="-0.7754">
        <ele>146</ele>
        <time>2021-05-12T07:40:44Z</time>
      </trkpt>
      <trkpt lat="46.9531" lon="-0.77534">
        <ele>146</ele>
        <time>2021-05-12T07:40:58Z</time>
      </trkpt>
      <trkpt lat="46.95293" lon="-0.77526">
        <ele>146</ele>
        <time>2021-05-12T07:41:12Z</time>
      </trkpt>
      <trkpt lat="46.95277" lon="-0.77517">
        <ele>146</ele>
        <time>2021-05-12T07:41:26Z</time>
      </trkpt>
      <trkpt lat="46.95249" lon="-0.77505">
        <ele>146</ele>
        <time>2021-05-12T07:41:49Z</time>
      </trkpt>
      <trkpt lat="46.95217" lon="-0.77496">
        <ele>146</ele>
        <time>2021-05-12T07:42:15Z</time>
      </trkpt>
      <trkpt lat="46.9519" lon="-0.77482">
        <ele>146</ele>
        <time>2021-05-12T07:42:38Z</time>
      </trkpt>
      <trkpt lat="46.95131" lon="-0.77468">
        <ele>145</ele>
        <time>2021-05-12T07:43:26Z</time>
      </trkpt>
      <trkpt lat="46.95116" lon="-0.77456">
        <ele>144</ele>
        <time>2021-05-12T07:43:39Z</time>
      </trkpt>
      <trkpt lat="46.95082" lon="-0.77446">
        <ele>143</ele>
        <time>2021-05-12T07:44:07Z</time>
      </trkpt>
      <trkpt lat="46.95063" lon="-0.77438">
        <ele>143</ele>
        <time>2021-05-12T07:44:23Z</time>
      </trkpt>
      <trkpt lat="46.95048" lon="-0.77427">
        <ele>142</ele>
        <time>2021-05-12T07:44:36Z</time>
      </trkpt>
      <trkpt lat="46.95026" lon="-0.77411">
        <ele>142</ele>
        <time>2021-05-12T07:44:56Z</time>
      </trkpt>
      <trkpt lat="46.95013" lon="-0.77391">
        <ele>142</ele>
        <time>2021-05-12T07:45:11Z</time>
      </trkpt>
      <trkpt lat="46.94991" lon="-0.77379">
        <ele>142</ele>
        <time>2021-05-12T07:45:30Z</time>
      </trkpt>
      <trkpt lat="46.94972" lon="-0.77365">
        <ele>143</ele>
        <time>2021-05-12T07:45:47Z</time>
      </trkpt>
      <trkpt lat="46.94955" lon="-0.77355">
        <ele>143</ele>
        <time>2021-05-12T07:46:02Z</time>
      </trkpt>
      <trkpt lat="46.94942" lon="-0.77346">
        <ele>143</ele>
        <time>2021-05-12T07:46:13Z</time>
      </trkpt>
      <trkpt lat="46.94931" lon="-0.77333">
        <ele>143</ele>
        <time>2021-05-12T07:46:25Z</time>
      </trkpt>
      <trkpt lat="46.94915" lon="-0.77333">
        <ele>143</ele>
        <time>2021-05-12T07:46:37Z</time>
      </trkpt>
      <trkpt lat="46.94884" lon="-0.77332">
        <ele>143</ele>
        <time>2021-05-12T07:47:02Z</time>
      </trkpt>
      <trkpt lat="46.94858" lon="-0.77327">
        <ele>144</ele>
        <time>2021-05-12T07:47:23Z</time>
      </trkpt>
      <trkpt lat="46.94837" lon="-0.77327">
        <ele>144</ele>
        <time>2021-05-12T07:47:40Z</time>
      </trkpt>
      <trkpt lat="46.9482" lon="-0.77318">
        <ele>144</ele>
        <time>2021-05-12T07:47:54Z</time>
      </trkpt>
      <trkpt lat="46.94803" lon="-0.77309">
        <ele>145</ele>
        <time>2021-05-12T07:48:09Z</time>
      </trkpt>
      <trkpt lat="46.94781" lon="-0.77286">
        <ele>145</ele>
        <time>2021-05-12T07:48:31Z</time>
      </trkpt>
      <trkpt lat="46.94765" lon="-0.77274">
        <ele>145</ele>
        <time>2021-05-12T07:48:45Z</time>
      </trkpt>
      <trkpt lat="46.94755" lon="-0.77261">
        <ele>145</ele>
        <time>2021-05-12T07:48:56Z</time>
      </trkpt>
      <trkpt lat="46.94741" lon="-0.77245">
        <ele>145</ele>
        <time>2021-05-12T07:49:10Z</time>
      </trkpt>
      <trkpt lat="46.94732" lon="-0.77239">
        <ele>145</ele>
        <time>2021-05-12T07:49:18Z</time>
      </trkpt>
      <trkpt lat="46.94715" lon="-0.77221">
        <ele>145</ele>
        <time>2021-05-12T07:49:35Z</time>
      </trkpt>
      <trkpt lat="46.947" lon="-0.77209">
        <ele>145</ele>
        <time>2021-05-12T07:49:48Z</time>
      </trkpt>
      <trkpt lat="46.9469" lon="-0.77201">
        <ele>145</ele>
        <time>2021-05-12T07:49:57Z</time>
      </trkpt>
      <trkpt lat="46.94678" lon="-0.77198">
        <ele>145</ele>
        <time>2021-05-12T07:50:07Z</time>
      </trkpt>
      <trkpt lat="46.94657" lon="-0.77204">
        <ele>145</ele>
        <time>2021-05-12T07:50:24Z</time>
      </trkpt>
      <trkpt lat="46.94642" lon="-0.77215">
        <ele>145</ele>
        <time>2021-05-12T07:50:38Z</time>
      </trkpt>
      <trkpt lat="46.94623" lon="-0.77223">
        <ele>144</ele>
        <time>2021-05-12T07:50:54Z</time>
      </trkpt>
      <trkpt lat="46.94607" lon="-0.77224">
        <ele>145</ele>
        <time>2021-05-12T07:51:06Z</time>
      </trkpt>
      <trkpt lat="46.94586" lon="-0.77226">
        <ele>145</ele>
        <time>2021-05-12T07:51:23Z</time>
      </trkpt>
      <trkpt lat="46.94568" lon="-0.77229">
        <ele>145</ele>
        <time>2021-05-12T07:51:38Z</time>
      </trkpt>
      <trkpt lat="46.94548" lon="-0.77224">
        <ele>146</ele>
        <time>2021-05-12T07:51:54Z</time>
      </trkpt>
      <trkpt lat="46.9453" lon="-0.77232">
        <ele>146</ele>
        <time>2021-05-12T07:52:09Z</time>
      </trkpt>
      <trkpt lat="46.9451" lon="-0.77241">
        <ele>146</ele>
        <time>2021-05-12T07:52:26Z</time>
      </trkpt>
      <trkpt lat="46.94489" lon="-0.77241">
        <ele>147</ele>
        <time>2021-05-12T07:52:43Z</time>
      </trkpt>
      <trkpt lat="46.94471" lon="-0.77239">
        <ele>147</ele>
        <time>2021-05-12T07:52:57Z</time>
      </trkpt>
      <trkpt lat="46.94463" lon="-0.77241">
        <ele>148</ele>
        <time>2021-05-12T07:53:04Z</time>
      </trkpt>
      <trkpt lat="46.94453" lon="-0.7723">
        <ele>148</ele>
        <time>2021-05-12T07:53:14Z</time>
      </trkpt>
      <trkpt lat="46.94446" lon="-0.77218">
        <ele>149</ele>
        <time>2021-05-12T07:53:22Z</time>
      </trkpt>
      <trkpt lat="46.94462" lon="-0.77179">
        <ele>150</ele>
        <time>2021-05-12T07:53:47Z</time>
      </trkpt>
      <trkpt lat="46.94481" lon="-0.77147">
        <ele>150</ele>
        <time>2021-05-12T07:54:10Z</time>
      </trkpt>
      <trkpt lat="46.94495" lon="-0.77119">
        <ele>150</ele>
        <time>2021-05-12T07:54:29Z</time>
      </trkpt>
      <trkpt lat="46.94501" lon="-0.77097">
        <ele>150</ele>
        <time>2021-05-12T07:54:42Z</time>
      </trkpt>
      <trkpt lat="46.94503" lon="-0.77068">
        <ele>150</ele>
        <time>2021-05-12T07:54:58Z</time>
      </trkpt>
      <trkpt lat="46.94508" lon="-0.77031">
        <ele>152</ele>
        <time>2021-05-12T07:55:19Z</time>
      </trkpt>
      <trkpt lat="46.94509" lon="-0.7701">
        <ele>152</ele>
        <time>2021-05-12T07:55:30Z</time>
      </trkpt>
      <trkpt lat="46.94511" lon="-0.76992">
        <ele>153</ele>
        <time>2021-05-12T07:55:40Z</time>
      </trkpt>
      <trkpt lat="46.94514" lon="-0.76975">
        <ele>153</ele>
        <time>2021-05-12T07:55:50Z</time>
      </trkpt>
      <trkpt lat="46.94493" lon="-0.76963">
        <ele>154</ele>
        <time>2021-05-12T07:56:08Z</time>
      </trkpt>
      <trkpt lat="46.94473" lon="-0.76948">
        <ele>154</ele>
        <time>2021-05-12T07:56:26Z</time>
      </trkpt>
      <trkpt lat="46.94453" lon="-0.76934">
        <ele>155</ele>
        <time>2021-05-12T07:56:44Z</time>
      </trkpt>
      <trkpt lat="46.94426" lon="-0.76918">
        <ele>157</ele>
        <time>2021-05-12T07:57:07Z</time>
      </trkpt>
      <trkpt lat="46.94414" lon="-0.76905">
        <ele>158</ele>
        <time>2021-05-12T07:57:19Z</time>
      </trkpt>
      <trkpt lat="46.94396" lon="-0.76892">
        <ele>159</ele>
        <time>2021-05-12T07:57:35Z</time>
      </trkpt>
      <trkpt lat="46.94379" lon="-0.76881">
        <ele>160</ele>
        <time>2021-05-12T07:57:50Z</time>
      </trkpt>
      <trkpt lat="46.94362" lon="-0.76875">
        <ele>161</ele>
        <time>2021-05-12T07:58:04Z</time>
      </trkpt>
      <trkpt lat="46.94339" lon="-0.76854">
        <ele>163</ele>
        <time>2021-05-12T07:58:26Z</time>
      </trkpt>
      <trkpt lat="46.94328" lon="-0.76842">
        <ele>163</ele>
        <time>2021-05-12T07:58:36Z</time>
      </trkpt>
      <trkpt lat="46.94316" lon="-0.76808">
        <ele>164</ele>
        <time>2021-05-12T07:58:57Z</time>
      </trkpt>
      <trkpt lat="46.94293" lon="-0.76749">
        <ele>164</ele>
        <time>2021-05-12T07:59:35Z</time>
      </trkpt>
      <trkpt lat="46.94278" lon="-0.76716">
        <ele>165</ele>
        <time>2021-05-12T07:59:56Z</time>
      </trkpt>
      <trkpt lat="46.94261" lon="-0.76701">
        <ele>166</ele>
        <time>2021-05-12T08:00:12Z</time>
      </trkpt>
      <trkpt lat="46.94245" lon="-0.76679">
        <ele>166</ele>
        <time>2021-05-12T08:00:30Z</time>
      </trkpt>
      <trkpt lat="46.94234" lon="-0.76661">
        <ele>167</ele>
        <time>2021-05-12T08:00:43Z</time>
      </trkpt>
      <trkpt lat="46.94215" lon="-0.76635">
        <ele>166</ele>
        <time>2021-05-12T08:01:04Z</time>
      </trkpt>
      <trkpt lat="46.94205" lon="-0.76601">
        <ele>166</ele>
        <time>2021-05-12T08:01:24Z</time>
      </trkpt>
      <trkpt lat="46.94191" lon="-0.76579">
        <ele>166</ele>
        <time>2021-05-12T08:01:40Z</time>
      </trkpt>
      <trkpt lat="46.94181" lon="-0.76549">
        <ele>167</ele>
        <time>2021-05-12T08:01:59Z</time>
      </trkpt>
      <trkpt lat="46.94172" lon="-0.76525">
        <ele>167</ele>
        <time>2021-05-12T08:02:14Z</time>
      </trkpt>
      <trkpt lat="46.94153" lon="-0.76475">
        <ele>167</ele>
        <time>2021-05-12T08:02:45Z</time>
      </trkpt>
      <trkpt lat="46.94148" lon="-0.76456">
        <ele>167</ele>
        <time>2021-05-12T08:02:56Z</time>
      </trkpt>
      <trkpt lat="46.94138" lon="-0.76428">
        <ele>167</ele>
        <time>2021-05-12T08:03:13Z</time>
      </trkpt>
      <trkpt lat="46.94133" lon="-0.76399">
        <ele>167</ele>
        <time>2021-05-12T08:03:30Z</time>
      </trkpt>
      <trkpt lat="46.94121" lon="-0.76387">
        <ele>167</ele>
        <time>2021-05-12T08:03:41Z</time>
      </trkpt>
      <trkpt lat="46.94105" lon="-0.76371">
        <ele>167</ele>
        <time>2021-05-12T08:03:57Z</time>
      </trkpt>
      <trkpt lat="46.94091" lon="-0.76358">
        <ele>167</ele>
        <time>2021-05-12T08:04:10Z</time>
      </trkpt>
      <trkpt lat="46.94074" lon="-0.76341">
        <ele>167</ele>
        <time>2021-05-12T08:04:27Z</time>
      </trkpt>
      <trkpt lat="46.94056" lon="-0.76333">
        <ele>167</ele>
        <time>2021-05-12T08:04:42Z</time>
      </trkpt>
      <trkpt lat="46.94034" lon="-0.76315">
        <ele>168</ele>
        <time>2021-05-12T08:05:02Z</time>
      </trkpt>
      <trkpt lat="46.94012" lon="-0.76303">
        <ele>168</ele>
        <time>2021-05-12T08:05:21Z</time>
      </trkpt>
      <trkpt lat="46.94002" lon="-0.76293">
        <ele>168</ele>
        <time>2021-05-12T08:05:30Z</time>
      </trkpt>
      <trkpt lat="46.93987" lon="-0.76282">
        <ele>168</ele>
        <time>2021-05-12T08:05:44Z</time>
      </trkpt>
      <trkpt lat="46.93947" lon="-0.76315">
        <ele>170</ele>
        <time>2021-05-12T08:06:20Z</time>
      </trkpt>
      <trkpt lat="46.93927" lon="-0.76333">
        <ele>171</ele>
        <time>2021-05-12T08:06:39Z</time>
      </trkpt>
      <trkpt lat="46.93915" lon="-0.76353">
        <ele>170</ele>
        <time>2021-05-12T08:06:54Z</time>
      </trkpt>
      <trkpt lat="46.93926" lon="-0.76405">
        <ele>168</ele>
        <time>2021-05-12T08:07:24Z</time>
      </trkpt>
      <trkpt lat="46.93933" lon="-0.76455">
        <ele>167</ele>
        <time>2021-05-12T08:07:51Z</time>
      </trkpt>
      <trkpt lat="46.93943" lon="-0.76496">
        <ele>166</ele>
        <time>2021-05-12T08:08:15Z</time>
      </trkpt>
      <trkpt lat="46.93954" lon="-0.7654">
        <ele>165</ele>
        <time>2021-05-12T08:08:41Z</time>
      </trkpt>
      <trkpt lat="46.93959" lon="-0.76593">
        <ele>165</ele>
        <time>2021-05-12T08:09:10Z</time>
      </trkpt>
      <trkpt lat="46.93971" lon="-0.76635">
        <ele>163</ele>
        <time>2021-05-12T08:09:35Z</time>
      </trkpt>
      <trkpt lat="46.93978" lon="-0.76682">
        <ele>162</ele>
        <time>2021-05-12T08:10:01Z</time>
      </trkpt>
      <trkpt lat="46.93984" lon="-0.76714">
        <ele>162</ele>
        <time>2021-05-12T08:10:19Z</time>
      </trkpt>
      <trkpt lat="46.94004" lon="-0.76746">
        <ele>161</ele>
        <time>2021-05-12T08:10:43Z</time>
      </trkpt>
      <trkpt lat="46.94026" lon="-0.76775">
        <ele>161</ele>
        <time>2021-05-12T08:11:07Z</time>
      </trkpt>
      <trkpt lat="46.94046" lon="-0.7681">
        <ele>160</ele>
        <time>2021-05-12T08:11:32Z</time>
      </trkpt>
      <trkpt lat="46.94065" lon="-0.76836">
        <ele>160</ele>
        <time>2021-05-12T08:11:53Z</time>
      </trkpt>
      <trkpt lat="46.9408" lon="-0.76881">
        <ele>159</ele>
        <time>2021-05-12T08:12:20Z</time>
      </trkpt>
      <trkpt lat="46.94087" lon="-0.76924">
        <ele>158</ele>
        <time>2021-05-12T08:12:44Z</time>
      </trkpt>
      <trkpt lat="46.941" lon="-0.76953">
        <ele>157</ele>
        <time>2021-05-12T08:13:03Z</time>
      </trkpt>
      <trkpt lat="46.94103" lon="-0.76992">
        <ele>156</ele>
        <time>2021-05-12T08:13:25Z</time>
      </trkpt>
      <trkpt lat="46.94101" lon="-0.77036">
        <ele>155</ele>
        <time>2021-05-12T08:13:49Z</time>
      </trkpt>
      <trkpt lat="46.94097" lon="-0.77083">
        <ele>154</ele>
        <time>2021-05-12T08:14:15Z</time>
      </trkpt>
      <trkpt lat="46.94097" lon="-0.77132">
        <ele>152</ele>
        <time>2021-05-12T08:14:41Z</time>
      </trkpt>
      <trkpt lat="46.94102" lon="-0.77162">
        <ele>150</ele>
        <time>2021-05-12T08:14:58Z</time>
      </trkpt>
      <trkpt lat="46.9411" lon="-0.77201">
        <ele>149</ele>
        <time>2021-05-12T08:15:21Z</time>
      </trkpt>
      <trkpt lat="46.94116" lon="-0.77248">
        <ele>148</ele>
        <time>2021-05-12T08:15:47Z</time>
      </trkpt>
      <trkpt lat="46.94123" lon="-0.77292">
        <ele>146</ele>
        <time>2021-05-12T08:16:11Z</time>
      </trkpt>
      <trkpt lat="46.94127" lon="-0.7733">
        <ele>145</ele>
        <time>2021-05-12T08:16:32Z</time>
      </trkpt>
      <trkpt lat="46.94134" lon="-0.77355">
        <ele>144</ele>
        <time>2021-05-12T08:16:47Z</time>
      </trkpt>
      <trkpt lat="46.94128" lon="-0.77373">
        <ele>144</ele>
        <time>2021-05-12T08:16:58Z</time>
      </trkpt>
      <trkpt lat="46.94126" lon="-0.77397">
        <ele>143</ele>
        <time>2021-05-12T08:17:11Z</time>
      </trkpt>
      <trkpt lat="46.94133" lon="-0.77427">
        <ele>143</ele>
        <time>2021-05-12T08:17:29Z</time>
      </trkpt>
      <trkpt lat="46.94139" lon="-0.77464">
        <ele>142</ele>
        <time>2021-05-12T08:17:49Z</time>
      </trkpt>
      <trkpt lat="46.94149" lon="-0.775">
        <ele>141</ele>
        <time>2021-05-12T08:18:11Z</time>
      </trkpt>
      <trkpt lat="46.9416" lon="-0.77544">
        <ele>140</ele>
        <time>2021-05-12T08:18:36Z</time>
      </trkpt>
      <trkpt lat="46.94164" lon="-0.77559">
        <ele>140</ele>
        <time>2021-05-12T08:18:45Z</time>
      </trkpt>
      <trkpt lat="46.94164" lon="-0.77597">
        <ele>139</ele>
        <time>2021-05-12T08:19:06Z</time>
      </trkpt>
      <trkpt lat="46.94155" lon="-0.7764">
        <ele>138</ele>
        <time>2021-05-12T08:19:30Z</time>
      </trkpt>
      <trkpt lat="46.9415" lon="-0.77667">
        <ele>138</ele>
        <time>2021-05-12T08:19:46Z</time>
      </trkpt>
      <trkpt lat="46.94137" lon="-0.77688">
        <ele>136</ele>
        <time>2021-05-12T08:20:01Z</time>
      </trkpt>
      <trkpt lat="46.94122" lon="-0.77691">
        <ele>136</ele>
        <time>2021-05-12T08:20:13Z</time>
      </trkpt>
      <trkpt lat="46.94112" lon="-0.77688">
        <ele>136</ele>
        <time>2021-05-12T08:20:22Z</time>
      </trkpt>
      <trkpt lat="46.94097" lon="-0.7769">
        <ele>136</ele>
        <time>2021-05-12T08:20:34Z</time>
      </trkpt>
      <trkpt lat="46.94078" lon="-0.77685">
        <ele>136</ele>
        <time>2021-05-12T08:20:49Z</time>
      </trkpt>
      <trkpt lat="46.94074" lon="-0.77702">
        <ele>135</ele>
        <time>2021-05-12T08:20:59Z</time>
      </trkpt>
      <trkpt lat="46.94071" lon="-0.77729">
        <ele>133</ele>
        <time>2021-05-12T08:21:14Z</time>
      </trkpt>
      <trkpt lat="46.9407" lon="-0.77746">
        <ele>133</ele>
        <time>2021-05-12T08:21:23Z</time>
      </trkpt>
      <trkpt lat="46.94064" lon="-0.77767">
        <ele>133</ele>
        <time>2021-05-12T08:21:36Z</time>
      </trkpt>
      <trkpt lat="46.94014" lon="-0.77822">
        <ele>136</ele>
        <time>2021-05-12T08:22:26Z</time>
      </trkpt>
      <trkpt lat="46.94" lon="-0.7784">
        <ele>137</ele>
        <time>2021-05-12T08:22:41Z</time>
      </trkpt>
      <trkpt lat="46.93985" lon="-0.77866">
        <ele>138</ele>
        <time>2021-05-12T08:22:59Z</time>
      </trkpt>
      <trkpt lat="46.93976" lon="-0.77884">
        <ele>138</ele>
        <time>2021-05-12T08:23:11Z</time>
      </trkpt>
      <trkpt lat="46.93969" lon="-0.77937">
        <ele>140</ele>
        <time>2021-05-12T08:23:41Z</time>
      </trkpt>
      <trkpt lat="46.9396" lon="-0.77975">
        <ele>142</ele>
        <time>2021-05-12T08:24:03Z</time>
      </trkpt>
      <trkpt lat="46.93954" lon="-0.78012">
        <ele>143</ele>
        <time>2021-05-12T08:24:24Z</time>
      </trkpt>
      <trkpt lat="46.93948" lon="-0.7805">
        <ele>145</ele>
        <time>2021-05-12T08:24:45Z</time>
      </trkpt>
      <trkpt lat="46.93948" lon="-0.78072">
        <ele>146</ele>
        <time>2021-05-12T08:24:57Z</time>
      </trkpt>
      <trkpt lat="46.93924" lon="-0.78216">
        <ele>152</ele>
        <time>2021-05-12T08:26:18Z</time>
      </trkpt>
      <trkpt lat="46.9392" lon="-0.78259">
        <ele>155</ele>
        <time>2021-05-12T08:26:42Z</time>
      </trkpt>
      <trkpt lat="46.93914" lon="-0.78282">
        <ele>156</ele>
        <time>2021-05-12T08:26:55Z</time>
      </trkpt>
      <trkpt lat="46.9392" lon="-0.78304">
        <ele>158</ele>
        <time>2021-05-12T08:27:08Z</time>
      </trkpt>
      <trkpt lat="46.93917" lon="-0.78318">
        <ele>158</ele>
        <time>2021-05-12T08:27:16Z</time>
      </trkpt>
      <trkpt lat="46.93915" lon="-0.78332">
        <ele>159</ele>
        <time>2021-05-12T08:27:24Z</time>
      </trkpt>
      <trkpt lat="46.93909" lon="-0.78355">
        <ele>159</ele>
        <time>2021-05-12T08:27:38Z</time>
      </trkpt>
      <trkpt lat="46.93939" lon="-0.78436">
        <ele>162</ele>
        <time>2021-05-12T08:28:28Z</time>
      </trkpt>
      <trkpt lat="46.93955" lon="-0.78473">
        <ele>163</ele>
        <time>2021-05-12T08:28:52Z</time>
      </trkpt>
      <trkpt lat="46.93973" lon="-0.78512">
        <ele>165</ele>
        <time>2021-05-12T08:29:18Z</time>
      </trkpt>
      <trkpt lat="46.93997" lon="-0.78564">
        <ele>168</ele>
        <time>2021-05-12T08:29:52Z</time>
      </trkpt>
      <trkpt lat="46.94023" lon="-0.786">
        <ele>171</ele>
        <time>2021-05-12T08:30:21Z</time>
      </trkpt>
      <trkpt lat="46.94045" lon="-0.78643">
        <ele>174</ele>
        <time>2021-05-12T08:30:50Z</time>
      </trkpt>
      <trkpt lat="46.94062" lon="-0.78669">
        <ele>177</ele>
        <time>2021-05-12T08:31:10Z</time>
      </trkpt>
      <trkpt lat="46.94079" lon="-0.78703">
        <ele>180</ele>
        <time>2021-05-12T08:31:33Z</time>
      </trkpt>
      <trkpt lat="46.94096" lon="-0.78738">
        <ele>182</ele>
        <time>2021-05-12T08:31:56Z</time>
      </trkpt>
      <trkpt lat="46.94106" lon="-0.78766">
        <ele>184</ele>
        <time>2021-05-12T08:32:13Z</time>
      </trkpt>
      <trkpt lat="46.94105" lon="-0.78781">
        <ele>185</ele>
        <time>2021-05-12T08:32:22Z</time>
      </trkpt>
      <trkpt lat="46.94113" lon="-0.78804">
        <ele>187</ele>
        <time>2021-05-12T08:32:36Z</time>
      </trkpt>
      <trkpt lat="46.94139" lon="-0.78828">
        <ele>190</ele>
        <time>2021-05-12T08:33:00Z</time>
      </trkpt>
      <trkpt lat="46.94153" lon="-0.78854">
        <ele>192</ele>
        <time>2021-05-12T08:33:18Z</time>
      </trkpt>
      <trkpt lat="46.94164" lon="-0.78876">
        <ele>194</ele>
        <time>2021-05-12T08:33:33Z</time>
      </trkpt>
      <trkpt lat="46.94173" lon="-0.78902">
        <ele>195</ele>
        <time>2021-05-12T08:33:49Z</time>
      </trkpt>
      <trkpt lat="46.94187" lon="-0.78928">
        <ele>195</ele>
        <time>2021-05-12T08:34:07Z</time>
      </trkpt>
      <trkpt lat="46.94208" lon="-0.78961">
        <ele>195</ele>
        <time>2021-05-12T08:34:32Z</time>
      </trkpt>
      <trkpt lat="46.9422" lon="-0.78984">
        <ele>194</ele>
        <time>2021-05-12T08:34:48Z</time>
      </trkpt>
      <trkpt lat="46.9423" lon="-0.78995">
        <ele>194</ele>
        <time>2021-05-12T08:34:58Z</time>
      </trkpt>
      <trkpt lat="46.94243" lon="-0.79013">
        <ele>194</ele>
        <time>2021-05-12T08:35:12Z</time>
      </trkpt>
      <trkpt lat="46.94264" lon="-0.79033">
        <ele>194</ele>
        <time>2021-05-12T08:35:32Z</time>
      </trkpt>
      <trkpt lat="46.94269" lon="-0.79046">
        <ele>194</ele>
        <time>2021-05-12T08:35:40Z</time>
      </trkpt>
      <trkpt lat="46.94274" lon="-0.79071">
        <ele>194</ele>
        <time>2021-05-12T08:35:55Z</time>
      </trkpt>
      <trkpt lat="46.94279" lon="-0.79095">
        <ele>194</ele>
        <time>2021-05-12T08:36:08Z</time>
      </trkpt>
      <trkpt lat="46.94283" lon="-0.79115">
        <ele>194</ele>
        <time>2021-05-12T08:36:20Z</time>
      </trkpt>
      <trkpt lat="46.94287" lon="-0.79137">
        <ele>194</ele>
        <time>2021-05-12T08:36:32Z</time>
      </trkpt>
      <trkpt lat="46.94314" lon="-0.79169">
        <ele>193</ele>
        <time>2021-05-12T08:37:00Z</time>
      </trkpt>
      <trkpt lat="46.94345" lon="-0.79191">
        <ele>191</ele>
        <time>2021-05-12T08:37:28Z</time>
      </trkpt>
      <trkpt lat="46.94364" lon="-0.79204">
        <ele>189</ele>
        <time>2021-05-12T08:37:44Z</time>
      </trkpt>
      <trkpt lat="46.94377" lon="-0.79212">
        <ele>189</ele>
        <time>2021-05-12T08:37:56Z</time>
      </trkpt>
      <trkpt lat="46.94397" lon="-0.79228">
        <ele>188</ele>
        <time>2021-05-12T08:38:14Z</time>
      </trkpt>
      <trkpt lat="46.9441" lon="-0.79236">
        <ele>187</ele>
        <time>2021-05-12T08:38:25Z</time>
      </trkpt>
      <trkpt lat="46.94421" lon="-0.79257">
        <ele>187</ele>
        <time>2021-05-12T08:38:40Z</time>
      </trkpt>
      <trkpt lat="46.94427" lon="-0.79272">
        <ele>187</ele>
        <time>2021-05-12T08:38:49Z</time>
      </trkpt>
      <trkpt lat="46.94433" lon="-0.79297">
        <ele>187</ele>
        <time>2021-05-12T08:39:04Z</time>
      </trkpt>
      <trkpt lat="46.94436" lon="-0.79324">
        <ele>187</ele>
        <time>2021-05-12T08:39:19Z</time>
      </trkpt>
      <trkpt lat="46.94431" lon="-0.79344">
        <ele>187</ele>
        <time>2021-05-12T08:39:30Z</time>
      </trkpt>
      <trkpt lat="46.94425" lon="-0.79365">
        <ele>187</ele>
        <time>2021-05-12T08:39:43Z</time>
      </trkpt>
      <trkpt lat="46.94427" lon="-0.79379">
        <ele>187</ele>
        <time>2021-05-12T08:39:51Z</time>
      </trkpt>
      <trkpt lat="46.94438" lon="-0.79395">
        <ele>186</ele>
        <time>2021-05-12T08:40:03Z</time>
      </trkpt>
      <trkpt lat="46.94444" lon="-0.79411">
        <ele>185</ele>
        <time>2021-05-12T08:40:13Z</time>
      </trkpt>
      <trkpt lat="46.94447" lon="-0.79429">
        <ele>185</ele>
        <time>2021-05-12T08:40:23Z</time>
      </trkpt>
      <trkpt lat="46.94462" lon="-0.79428">
        <ele>184</ele>
        <time>2021-05-12T08:40:35Z</time>
      </trkpt>
      <trkpt lat="46.94493" lon="-0.7944">
        <ele>183</ele>
        <time>2021-05-12T08:41:01Z</time>
      </trkpt>
      <trkpt lat="46.94526" lon="-0.79444">
        <ele>182</ele>
        <time>2021-05-12T08:41:27Z</time>
      </trkpt>
      <trkpt lat="46.94556" lon="-0.79458">
        <ele>181</ele>
        <time>2021-05-12T08:41:52Z</time>
      </trkpt>
      <trkpt lat="46.94577" lon="-0.79481">
        <ele>181</ele>
        <time>2021-05-12T08:42:13Z</time>
      </trkpt>
      <trkpt lat="46.94612" lon="-0.79491">
        <ele>178</ele>
        <time>2021-05-12T08:42:42Z</time>
      </trkpt>
      <trkpt lat="46.94651" lon="-0.79492">
        <ele>175</ele>
        <time>2021-05-12T08:43:13Z</time>
      </trkpt>
      <trkpt lat="46.94683" lon="-0.795">
        <ele>172</ele>
        <time>2021-05-12T08:43:39Z</time>
      </trkpt>
      <trkpt lat="46.94717" lon="-0.79493">
        <ele>170</ele>
        <time>2021-05-12T08:44:07Z</time>
      </trkpt>
      <trkpt lat="46.94768" lon="-0.79495">
        <ele>167</ele>
        <time>2021-05-12T08:44:48Z</time>
      </trkpt>
      <trkpt lat="46.94806" lon="-0.79502">
        <ele>166</ele>
        <time>2021-05-12T08:45:18Z</time>
      </trkpt>
      <trkpt lat="46.94855" lon="-0.79502">
        <ele>164</ele>
        <time>2021-05-12T08:45:58Z</time>
      </trkpt>
      <trkpt lat="46.94914" lon="-0.79509">
        <ele>160</ele>
        <time>2021-05-12T08:46:45Z</time>
      </trkpt>
      <trkpt lat="46.94956" lon="-0.79506">
        <ele>160</ele>
        <time>2021-05-12T08:47:19Z</time>
      </trkpt>
      <trkpt lat="46.95009" lon="-0.79497">
        <ele>159</ele>
        <time>2021-05-12T08:48:01Z</time>
      </trkpt>
      <trkpt lat="46.9505" lon="-0.79492">
        <ele>157</ele>
        <time>2021-05-12T08:48:34Z</time>
      </trkpt>
      <trkpt lat="46.95084" lon="-0.79493">
        <ele>156</ele>
        <time>2021-05-12T08:49:01Z</time>
      </trkpt>
      <trkpt lat="46.95121" lon="-0.79486">
        <ele>154</ele>
        <time>2021-05-12T08:49:31Z</time>
      </trkpt>
      <trkpt lat="46.95155" lon="-0.79482">
        <ele>152</ele>
        <time>2021-05-12T08:49:59Z</time>
      </trkpt>
      <trkpt lat="46.95191" lon="-0.79471">
        <ele>150</ele>
        <time>2021-05-12T08:50:28Z</time>
      </trkpt>
      <trkpt lat="46.95218" lon="-0.79449">
        <ele>148</ele>
        <time>2021-05-12T08:50:53Z</time>
      </trkpt>
      <trkpt lat="46.95243" lon="-0.7943">
        <ele>147</ele>
        <time>2021-05-12T08:51:15Z</time>
      </trkpt>
      <trkpt lat="46.95261" lon="-0.79418">
        <ele>147</ele>
        <time>2021-05-12T08:51:31Z</time>
      </trkpt>
      <trkpt lat="46.95284" lon="-0.79453">
        <ele>146</ele>
        <time>2021-05-12T08:51:58Z</time>
      </trkpt>
    </trkseg>
  </trk>
</gpx>